createdAt,value
2023-02-04T00:04:59.120Z,0.00
2023-02-04T00:09:58.994Z,0.00
2023-02-04T00:20:36.949Z,0.00
2023-02-04T00:25:36.515Z,0.00
2023-02-04T00:30:36.611Z,0.00
2023-02-04T00:35:36.078Z,0.00
2023-02-04T00:40:36.801Z,0.00
2023-02-04T01:19:31.925Z,0.00
2023-02-04T01:24:31.196Z,0.00
2023-02-04T01:29:31.160Z,0.00
2023-02-04T01:34:31.073Z,0.00
2023-02-04T01:39:31.088Z,0.00
2023-02-04T01:44:30.991Z,0.00
2023-02-04T01:49:31.039Z,0.00
2023-02-04T01:54:30.807Z,0.00
2023-02-04T01:59:30.802Z,0.00
2023-02-04T02:04:30.703Z,0.00
2023-02-04T02:09:41.431Z,0.00
2023-02-04T02:14:30.561Z,0.00
2023-02-04T02:19:30.595Z,0.00
2023-02-04T02:24:30.538Z,0.00
2023-02-04T02:29:31.129Z,0.00
2023-02-04T02:34:30.392Z,0.00
2023-02-04T02:39:30.442Z,0.00
2023-02-04T02:44:30.260Z,0.00
2023-02-04T02:49:30.178Z,0.00
2023-02-04T02:54:30.199Z,0.00
2023-02-04T02:59:30.359Z,0.00
2023-02-04T03:04:29.986Z,0.00
2023-02-04T03:09:32.930Z,0.00
2023-02-04T03:14:29.982Z,0.00
2023-02-04T03:19:29.880Z,0.00
2023-02-04T03:24:29.931Z,0.00
2023-02-04T03:29:30.016Z,0.00
2023-02-04T03:36:21.487Z,0.00
2023-02-04T03:42:38.946Z,0.00
2023-02-04T03:47:38.899Z,0.00
2023-02-04T03:52:38.720Z,0.00
2023-02-04T03:57:38.264Z,0.00
2023-02-04T04:02:38.544Z,0.00
2023-02-04T04:07:38.447Z,0.00
2023-02-04T04:12:38.400Z,0.00
2023-02-04T04:17:38.261Z,0.00
2023-02-04T04:22:38.221Z,0.00
2023-02-04T04:27:38.269Z,0.00
2023-02-04T05:26:29.928Z,0.00
2023-02-04T08:32:25.597Z,3192.00
2023-02-04T08:37:25.053Z,4476.00
2023-02-04T09:40:01.889Z,6360.00
2023-02-04T09:45:01.092Z,5028.00
2023-02-04T09:50:00.835Z,5148.00
2023-02-04T09:55:01.076Z,6152.00
2023-02-04T10:00:09.928Z,6028.00
2023-02-04T10:11:48.286Z,4092.00
2023-02-04T10:30:35.632Z,6216.00
2023-02-04T10:35:34.845Z,6416.00
2023-02-04T10:40:36.141Z,5960.00
2023-02-04T10:45:34.669Z,6636.00
2023-02-04T10:50:34.959Z,6376.00
2023-02-04T10:55:34.709Z,6376.00
2023-02-04T11:01:53.669Z,6148.00
2023-02-04T11:06:53.295Z,7028.00
2023-02-04T11:11:53.077Z,7248.00
2023-02-04T11:16:53.211Z,7612.00
2023-02-04T11:21:53.020Z,7172.00
2023-02-04T11:26:52.897Z,5720.00
2023-02-04T11:31:52.944Z,4340.00
2023-02-04T11:42:01.022Z,4048.00
2023-02-04T11:46:59.509Z,5668.00
2023-02-04T11:51:59.322Z,7008.00
2023-02-04T11:56:59.243Z,7028.00
2023-02-04T12:01:59.271Z,8536.00
2023-02-04T12:06:59.307Z,6816.00
2023-02-04T12:11:59.006Z,6996.00
2023-02-04T12:16:58.887Z,6380.00
2023-02-04T12:21:58.985Z,5624.00
2023-02-04T12:26:58.741Z,4976.00
2023-02-04T12:32:02.205Z,4328.00
2023-02-04T12:36:59.028Z,3288.00
2023-02-04T12:41:58.752Z,3408.00
2023-02-04T12:46:58.816Z,4296.00
2023-02-04T12:51:59.315Z,5812.00
2023-02-04T13:09:17.755Z,3900.00
2023-02-04T13:14:17.734Z,3976.00
2023-02-04T13:19:17.549Z,3936.00
2023-02-04T13:24:17.512Z,3164.00
2023-02-04T13:44:35.594Z,3296.00
2023-02-04T13:51:10.965Z,2840.00
2023-02-04T13:56:10.795Z,3372.00
2023-02-04T14:01:11.149Z,3256.00
2023-02-04T14:06:10.955Z,2940.00
2023-02-04T14:11:11.512Z,2760.00
2023-02-04T14:16:10.502Z,4088.00
2023-02-04T14:21:10.583Z,4216.00
2023-02-04T14:26:10.483Z,3280.00
2023-02-04T14:31:10.454Z,2600.00
2023-02-04T14:36:11.291Z,2884.00
2023-02-04T14:46:53.335Z,1776.00
2023-02-04T14:51:52.384Z,2004.00
2023-02-04T14:56:52.560Z,2032.00
2023-02-04T15:01:52.556Z,1552.00
2023-02-04T15:30:11.265Z,1060.00
2023-02-04T15:35:07.731Z,820.00
2023-02-04T15:40:07.361Z,768.00
2023-02-04T15:45:07.418Z,568.00
2023-02-04T15:50:07.407Z,496.00
2023-02-04T15:55:07.477Z,388.00
2023-02-04T16:11:59.018Z,136.00
2023-02-04T16:22:27.603Z,36.00
2023-02-04T16:38:51.437Z,4.00
2023-02-04T16:43:51.345Z,0.00
2023-02-04T16:48:51.715Z,0.00
2023-02-04T16:53:51.124Z,0.00
2023-02-04T16:58:51.174Z,0.00
2023-02-04T17:03:51.199Z,0.00
2023-02-04T17:08:50.963Z,0.00
2023-02-04T17:13:51.064Z,0.00
2023-02-04T17:18:51.086Z,0.00
2023-02-04T17:23:50.941Z,0.00
2023-02-04T17:28:54.287Z,0.00
2023-02-04T17:33:50.628Z,0.00
2023-02-04T17:38:50.848Z,0.00
2023-02-04T17:43:50.686Z,0.00
2023-02-04T17:48:50.582Z,0.00
2023-02-04T17:53:50.566Z,0.00
2023-02-04T17:58:50.489Z,0.00
2023-02-04T18:03:50.250Z,0.00
2023-02-04T18:08:50.323Z,0.00
2023-02-04T18:13:50.330Z,0.00
2023-02-04T18:18:50.305Z,0.00
2023-02-04T18:23:50.246Z,0.00
2023-02-04T18:28:53.005Z,0.00
2023-02-04T18:33:50.053Z,0.00
2023-02-04T18:38:50.705Z,0.00
2023-02-04T18:53:08.269Z,0.00
2023-02-04T19:14:12.036Z,0.00
2023-02-04T19:30:48.133Z,0.00
2023-02-04T19:35:47.470Z,0.00
2023-02-04T19:40:47.510Z,0.00
2023-02-04T19:45:47.134Z,0.00
2023-02-04T19:50:47.873Z,0.00
2023-02-04T19:55:47.232Z,0.00
2023-02-04T20:00:47.693Z,0.00
2023-02-04T20:07:26.306Z,0.00
2023-02-04T20:12:26.043Z,0.00
2023-02-04T20:17:25.969Z,0.00
2023-02-04T20:22:26.121Z,0.00
2023-02-04T20:27:26.017Z,0.00
2023-02-04T20:32:25.825Z,0.00
2023-02-04T20:37:25.881Z,0.00
2023-02-04T20:42:33.867Z,0.00
2023-02-04T20:47:33.442Z,0.00
2023-02-04T20:52:25.681Z,0.00
2023-02-04T20:57:28.543Z,0.00
2023-02-04T21:02:25.651Z,0.00
2023-02-04T21:07:25.669Z,0.00
2023-02-04T21:12:25.396Z,0.00
2023-02-04T21:17:25.277Z,0.00
2023-02-04T21:22:25.131Z,0.00
2023-02-04T21:27:25.297Z,0.00
2023-02-04T21:32:25.000Z,0.00
2023-02-04T21:37:25.140Z,0.00
2023-02-04T21:42:24.870Z,0.00
2023-02-04T21:47:24.841Z,0.00
2023-02-04T21:52:24.781Z,0.00
2023-02-04T21:57:27.730Z,0.00
2023-02-04T22:02:24.722Z,0.00
2023-02-04T22:07:24.896Z,0.00
2023-02-04T22:12:24.479Z,0.00
2023-02-04T22:17:24.523Z,0.00
2023-02-04T22:22:31.841Z,0.00
2023-02-04T22:27:24.328Z,0.00
2023-02-04T22:32:24.409Z,0.00
2023-02-04T22:37:24.361Z,0.00
2023-02-04T22:42:24.460Z,0.00
2023-02-04T22:47:24.081Z,0.00
2023-02-04T22:52:24.175Z,0.00
2023-02-04T22:57:26.992Z,0.00
2023-02-04T23:02:24.106Z,0.00
2023-02-04T23:07:24.042Z,0.00
2023-02-04T23:12:23.712Z,0.00
2023-02-04T23:17:23.789Z,0.00
2023-02-04T23:22:23.621Z,0.00
2023-02-04T23:27:23.596Z,0.00
2023-02-04T23:32:23.470Z,0.00
2023-02-04T23:37:23.662Z,0.00
2023-02-04T23:42:23.341Z,0.00
2023-02-04T23:47:23.383Z,0.00
2023-02-04T23:52:23.195Z,0.00
2023-02-04T23:57:26.397Z,0.00
